createdAt,value
2022-09-01T00:01:42.211Z,16.13
2022-09-01T00:04:17.005Z,16.03
2022-09-01T00:06:43.909Z,16.15
2022-09-01T00:09:14.198Z,16.15
2022-09-01T00:11:43.693Z,16.09
2022-09-01T00:14:22.306Z,16.06
2022-09-01T00:17:01.986Z,16.04
2022-09-01T00:19:29.733Z,16.04
2022-09-01T00:21:57.305Z,16.09
2022-09-01T00:24:26.235Z,16.04
2022-09-01T00:26:53.987Z,15.99
2022-09-01T00:29:20.871Z,16.02
2022-09-01T00:31:47.967Z,15.98
2022-09-01T00:34:14.801Z,16.00
2022-09-01T00:36:41.631Z,15.95
2022-09-01T00:39:09.061Z,15.93
2022-09-01T00:41:41.750Z,15.95
2022-09-01T00:44:12.173Z,15.91
2022-09-01T00:46:47.593Z,15.91
2022-09-01T00:49:26.106Z,15.85
2022-09-01T00:51:59.853Z,15.93
2022-09-01T00:54:32.390Z,15.79
2022-09-01T00:56:59.886Z,15.87
2022-09-01T00:59:27.971Z,15.90
2022-09-01T01:01:56.438Z,15.87
2022-09-01T01:04:23.006Z,15.78
2022-09-01T01:07:01.826Z,15.75
2022-09-01T01:09:32.069Z,15.74
2022-09-01T01:12:00.647Z,15.79
2022-09-01T01:14:31.419Z,15.70
2022-09-01T01:17:00.076Z,15.68
2022-09-01T01:20:02.427Z,15.69
2022-09-01T01:23:02.710Z,15.71
2022-09-01T01:25:42.001Z,15.68
2022-09-01T01:28:31.989Z,15.73
2022-09-01T01:31:06.200Z,15.68
2022-09-01T01:33:51.258Z,15.62
2022-09-01T01:36:32.136Z,15.63
2022-09-01T01:39:03.519Z,15.57
2022-09-01T01:41:32.892Z,15.56
2022-09-01T01:44:04.332Z,15.51
2022-09-01T01:46:33.338Z,15.41
2022-09-01T01:49:02.467Z,15.44
2022-09-01T01:51:31.877Z,15.46
2022-09-01T01:53:59.697Z,15.48
2022-09-01T01:56:26.217Z,15.43
2022-09-01T01:58:55.423Z,15.47
2022-09-01T02:01:32.058Z,15.45
2022-09-01T02:04:00.595Z,15.50
2022-09-01T02:06:28.542Z,15.51
2022-09-01T02:08:58.061Z,15.52
2022-09-01T02:11:26.413Z,15.47
2022-09-01T02:13:57.486Z,15.49
2022-09-01T02:16:26.228Z,15.46
2022-09-01T02:18:54.021Z,15.44
2022-09-01T02:21:23.285Z,15.33
2022-09-01T02:24:03.490Z,15.34
2022-09-01T02:26:34.110Z,15.32
2022-09-01T02:29:05.080Z,15.34
2022-09-01T02:31:35.699Z,15.30
2022-09-01T02:34:02.479Z,15.33
2022-09-01T02:36:32.791Z,15.27
2022-09-01T02:38:59.257Z,15.24
2022-09-01T02:41:29.293Z,15.23
2022-09-01T02:43:56.049Z,15.20
2022-09-01T02:46:24.558Z,15.22
2022-09-01T02:48:51.548Z,15.18
2022-09-01T02:51:22.582Z,15.13
2022-09-01T02:53:52.711Z,15.11
2022-09-01T02:56:25.126Z,15.12
2022-09-01T02:58:53.181Z,15.09
2022-09-01T03:01:25.004Z,15.06
2022-09-01T03:03:54.945Z,15.08
2022-09-01T03:06:24.274Z,15.11
2022-09-01T03:08:53.484Z,15.11
2022-09-01T03:11:20.186Z,15.10
2022-09-01T03:13:47.026Z,15.11
2022-09-01T03:16:13.693Z,15.16
2022-09-01T03:18:40.464Z,15.13
2022-09-01T03:21:08.458Z,15.10
2022-09-01T03:23:38.005Z,15.14
2022-09-01T03:26:04.582Z,15.11
2022-09-01T03:28:31.942Z,15.19
2022-09-01T03:30:59.352Z,15.27
2022-09-01T03:33:28.294Z,15.23
2022-09-01T03:35:55.981Z,15.26
2022-09-01T03:38:24.287Z,15.25
2022-09-01T03:41:02.106Z,15.29
2022-09-01T03:43:35.531Z,15.27
2022-09-01T03:46:03.423Z,15.27
2022-09-01T03:48:31.679Z,15.31
2022-09-01T03:51:03.186Z,15.35
2022-09-01T03:53:32.522Z,15.37
2022-09-01T03:56:00.249Z,15.38
2022-09-01T03:58:27.151Z,15.34
2022-09-01T04:00:58.310Z,15.34
2022-09-01T04:03:29.104Z,15.34
2022-09-01T04:05:56.145Z,15.33
2022-09-01T04:08:27.539Z,15.32
2022-09-01T04:11:02.989Z,15.38
2022-09-01T04:13:37.702Z,15.41
2022-09-01T04:16:31.003Z,15.40
2022-09-01T04:18:57.643Z,15.40
2022-09-01T04:21:24.195Z,15.35
2022-09-01T04:23:50.638Z,15.36
2022-09-01T04:26:20.545Z,15.39
2022-09-01T04:28:50.882Z,15.35
2022-09-01T04:31:20.099Z,15.44
2022-09-01T04:33:49.771Z,15.39
2022-09-01T04:36:25.893Z,15.37
2022-09-01T04:38:56.114Z,15.42
2022-09-01T04:41:25.675Z,15.45
2022-09-01T04:43:57.077Z,15.44
2022-09-01T04:46:28.467Z,15.42
2022-09-01T04:48:55.870Z,15.43
2022-09-01T04:51:24.074Z,15.44
2022-09-01T04:53:50.705Z,15.47
2022-09-01T04:56:20.728Z,15.49
2022-09-01T04:58:47.881Z,15.56
2022-09-01T05:01:21.638Z,15.56
2022-09-01T05:03:56.456Z,15.57
2022-09-01T05:06:23.247Z,15.58
2022-09-01T05:08:50.383Z,15.65
2022-09-01T05:11:17.843Z,15.63
2022-09-01T05:13:49.214Z,15.66
2022-09-01T05:16:25.310Z,15.62
2022-09-01T05:18:54.251Z,15.63
2022-09-01T05:21:24.724Z,15.71
2022-09-01T05:23:51.948Z,15.67
2022-09-01T05:26:25.008Z,15.69
2022-09-01T05:28:54.925Z,15.80
2022-09-01T05:31:23.412Z,15.76
2022-09-01T05:33:50.914Z,15.82
2022-09-01T05:36:20.201Z,15.76
2022-09-01T05:38:48.142Z,15.72
2022-09-01T05:41:16.447Z,15.86
2022-09-01T05:43:49.011Z,15.83
2022-09-01T05:46:17.677Z,15.71
2022-09-01T05:48:45.756Z,15.77
2022-09-01T05:51:40.317Z,15.79
2022-09-01T05:54:03.454Z,15.88
2022-09-01T05:56:31.303Z,15.89
2022-09-01T06:01:50.449Z,16.01
2022-09-01T06:04:17.524Z,16.04
2022-09-01T06:07:07.077Z,16.11
2022-09-01T06:09:33.951Z,16.15
2022-09-01T06:12:01.945Z,16.20
2022-09-01T06:14:28.493Z,16.27
2022-09-01T06:16:54.910Z,16.41
2022-09-01T06:19:21.349Z,16.52
2022-09-01T06:21:48.983Z,16.57
2022-09-01T06:24:15.446Z,16.57
2022-09-01T06:26:42.264Z,16.74
2022-09-01T06:29:15.323Z,16.60
2022-09-01T06:31:43.315Z,16.73
2022-09-01T06:34:17.691Z,16.85
2022-09-01T06:36:46.108Z,16.89
2022-09-01T06:39:19.722Z,16.77
2022-09-01T06:41:49.753Z,16.82
2022-09-01T06:44:22.351Z,16.83
2022-09-01T06:46:51.990Z,16.86
2022-09-01T06:49:19.315Z,16.88
2022-09-01T06:51:51.789Z,16.87
2022-09-01T06:54:21.165Z,16.65
2022-09-01T06:56:51.960Z,17.09
2022-09-01T06:59:21.808Z,16.99
2022-09-01T07:02:01.476Z,16.89
2022-09-01T07:04:43.169Z,17.04
2022-09-01T07:10:17.757Z,17.24
2022-09-01T07:13:05.609Z,17.28
2022-09-01T07:18:25.158Z,17.37
2022-09-01T07:21:36.296Z,17.20
2022-09-01T07:26:26.852Z,17.44
2022-09-01T07:29:01.001Z,17.62
2022-09-01T07:31:52.085Z,17.29
2022-09-01T07:34:38.851Z,17.37
2022-09-01T07:39:53.437Z,17.85
2022-09-01T07:45:28.000Z,17.74
2022-09-01T07:47:55.615Z,18.00
2022-09-01T07:51:34.281Z,18.27
2022-09-01T07:53:12.685Z,18.33
2022-09-01T07:55:42.233Z,18.46
2022-09-01T07:58:11.070Z,18.18
2022-09-01T08:00:43.596Z,18.56
2022-09-01T08:03:10.260Z,18.79
2022-09-01T08:05:38.121Z,18.39
2022-09-01T08:08:18.652Z,18.42
2022-09-01T08:10:49.074Z,18.17
2022-09-01T08:13:17.053Z,18.15
2022-09-01T08:18:47.940Z,18.13
2022-09-01T08:21:16.694Z,18.30
2022-09-01T08:23:44.306Z,18.81
2022-09-01T08:26:13.472Z,18.87
2022-09-01T08:28:45.985Z,19.16
2022-09-01T08:31:16.232Z,19.43
2022-09-01T08:33:44.418Z,19.30
2022-09-01T08:36:13.525Z,19.83
2022-09-01T08:38:41.270Z,19.89
2022-09-01T08:41:17.526Z,19.93
2022-09-01T08:44:04.863Z,19.82
2022-09-01T08:46:39.989Z,19.54
2022-09-01T08:49:28.762Z,19.27
2022-09-01T08:52:07.581Z,18.87
2022-09-01T08:54:46.842Z,18.96
2022-09-01T08:57:20.710Z,18.86
2022-09-01T08:59:47.567Z,18.91
2022-09-01T09:02:27.833Z,18.95
2022-09-01T09:05:00.808Z,19.26
2022-09-01T09:08:07.972Z,19.50
2022-09-01T09:10:55.584Z,19.93
2022-09-01T09:14:15.666Z,20.05
2022-09-01T09:16:51.573Z,19.43
2022-09-01T09:19:28.403Z,19.53
2022-09-01T09:21:58.692Z,19.73
2022-09-01T09:24:47.592Z,19.78
2022-09-01T09:27:20.054Z,19.72
2022-09-01T09:29:48.830Z,19.62
2022-09-01T09:32:23.007Z,19.65
2022-09-01T09:34:52.751Z,19.78
2022-09-01T09:37:22.386Z,19.59
2022-09-01T09:40:12.200Z,19.55
2022-09-01T09:42:40.802Z,19.28
2022-09-01T09:45:22.905Z,19.20
2022-09-01T09:47:49.728Z,19.41
2022-09-01T09:50:23.813Z,19.38
2022-09-01T09:52:52.603Z,19.37
2022-09-01T09:55:24.190Z,19.22
2022-09-01T09:57:54.658Z,19.29
2022-09-01T10:00:25.790Z,19.30
2022-09-01T10:02:58.867Z,19.19
2022-09-01T10:05:40.106Z,19.11
2022-09-01T10:08:10.526Z,19.18
2022-09-01T10:10:57.502Z,19.31
2022-09-01T10:13:27.589Z,19.42
2022-09-01T10:16:00.180Z,19.56
2022-09-01T10:18:35.220Z,19.36
2022-09-01T10:21:04.306Z,19.58
2022-09-01T10:23:34.670Z,19.59
2022-09-01T10:26:09.482Z,19.33
2022-09-01T10:28:49.500Z,19.82
2022-09-01T10:31:17.915Z,19.73
2022-09-01T10:33:45.321Z,19.95
2022-09-01T10:36:13.879Z,20.04
2022-09-01T10:38:52.627Z,20.13
2022-09-01T10:41:53.300Z,20.07
2022-09-01T10:44:33.788Z,20.26
2022-09-01T10:47:24.429Z,20.60
2022-09-01T10:49:50.870Z,20.62
2022-09-01T10:52:43.100Z,20.67
2022-09-01T10:55:26.682Z,20.53
2022-09-01T10:59:30.476Z,20.52
2022-09-01T11:03:56.308Z,21.03
2022-09-01T11:06:42.243Z,20.88
2022-09-01T11:09:37.903Z,20.90
2022-09-01T11:12:17.330Z,21.09
2022-09-01T11:15:02.426Z,21.20
2022-09-01T11:17:36.618Z,20.77
2022-09-01T11:20:10.555Z,20.42
2022-09-01T11:22:43.314Z,20.90
2022-09-01T11:25:13.024Z,20.68
2022-09-01T11:27:48.444Z,20.75
2022-09-01T11:30:24.205Z,20.87
2022-09-01T11:32:59.567Z,20.73
2022-09-01T11:35:28.946Z,20.89
2022-09-01T11:38:02.002Z,20.50
2022-09-01T11:40:32.575Z,20.72
2022-09-01T11:43:05.550Z,20.64
2022-09-01T11:45:42.113Z,20.85
2022-09-01T11:48:13.304Z,21.03
2022-09-01T11:50:42.553Z,20.84
2022-09-01T11:53:13.306Z,21.26
2022-09-01T11:55:42.387Z,21.23
2022-09-01T11:58:17.930Z,20.98
2022-09-01T12:00:44.906Z,20.92
2022-09-01T12:03:24.988Z,20.86
2022-09-01T12:05:59.506Z,20.99
2022-09-01T12:08:30.513Z,21.38
2022-09-01T12:11:20.546Z,21.44
2022-09-01T12:14:03.986Z,21.52
2022-09-01T12:16:34.812Z,21.44
2022-09-01T12:19:01.467Z,21.14
2022-09-01T12:21:34.017Z,21.70
2022-09-01T12:24:32.696Z,21.53
2022-09-01T12:27:01.340Z,22.08
2022-09-01T12:29:32.209Z,22.30
2022-09-01T12:32:00.156Z,22.27
2022-09-01T12:35:11.100Z,22.19
2022-09-01T12:37:38.534Z,22.42
2022-09-01T12:40:05.333Z,22.83
2022-09-01T12:42:39.540Z,22.45
2022-09-01T12:45:10.206Z,22.23
2022-09-01T12:47:37.343Z,22.00
2022-09-01T12:50:08.649Z,22.22
2022-09-01T12:52:44.955Z,21.94
2022-09-01T12:58:09.938Z,21.59
2022-09-01T13:00:58.518Z,21.97
2022-09-01T13:03:27.538Z,21.66
2022-09-01T13:05:56.402Z,21.75
2022-09-01T13:08:28.857Z,21.94
2022-09-01T13:11:01.399Z,21.69
2022-09-01T13:13:28.842Z,21.76
2022-09-01T13:16:00.045Z,22.27
2022-09-01T13:18:27.945Z,21.96
2022-09-01T13:20:55.950Z,21.95
2022-09-01T13:23:23.029Z,22.43
2022-09-01T13:25:49.897Z,22.99
2022-09-01T13:28:17.313Z,23.36
2022-09-01T13:30:48.700Z,23.63
2022-09-01T13:33:19.021Z,23.21
2022-09-01T13:35:46.130Z,22.70
2022-09-01T13:38:16.119Z,23.02
2022-09-01T13:40:47.280Z,22.92
2022-09-01T13:43:15.366Z,22.73
2022-09-01T13:45:42.205Z,22.46
2022-09-01T13:48:17.252Z,22.66
2022-09-01T13:53:32.798Z,22.48
2022-09-01T13:55:59.263Z,22.21
2022-09-01T13:58:25.722Z,22.41
2022-09-01T14:00:52.772Z,22.16
2022-09-01T14:03:22.772Z,22.16
2022-09-01T14:05:49.754Z,22.22
2022-09-01T14:08:19.073Z,22.13
2022-09-01T14:10:48.965Z,22.23
2022-09-01T14:13:15.855Z,22.04
2022-09-01T14:15:42.676Z,22.16
2022-09-01T14:18:09.202Z,22.41
2022-09-01T14:20:41.152Z,22.68
2022-09-01T14:23:08.935Z,22.43
2022-09-01T14:25:35.626Z,22.31
2022-09-01T14:28:03.869Z,22.14
2022-09-01T14:30:32.136Z,21.85
2022-09-01T14:33:02.698Z,22.09
2022-09-01T14:35:33.198Z,22.13
2022-09-01T14:38:01.247Z,22.17
2022-09-01T14:40:29.366Z,21.87
2022-09-01T14:42:56.426Z,21.89
2022-09-01T14:45:25.788Z,22.12
2022-09-01T14:47:55.320Z,22.01
2022-09-01T14:50:23.715Z,22.17
2022-09-01T14:52:53.785Z,22.13
2022-09-01T14:55:25.516Z,21.99
2022-09-01T14:57:52.455Z,21.98
2022-09-01T15:00:19.518Z,22.02
2022-09-01T15:02:46.677Z,22.21
2022-09-01T15:05:14.429Z,22.25
2022-09-01T15:07:42.160Z,22.08
2022-09-01T15:10:10.631Z,22.23
2022-09-01T15:12:42.789Z,22.26
2022-09-01T15:15:10.171Z,22.14
2022-09-01T15:17:36.730Z,22.09
2022-09-01T15:20:23.408Z,22.08
2022-09-01T15:22:50.466Z,22.24
2022-09-01T15:25:17.447Z,22.29
2022-09-01T15:27:43.950Z,22.48
2022-09-01T15:30:17.925Z,22.66
2022-09-01T15:32:50.183Z,22.63
2022-09-01T15:35:18.243Z,22.25
2022-09-01T15:37:47.550Z,22.24
2022-09-01T15:40:14.190Z,22.04
2022-09-01T15:42:40.691Z,21.83
2022-09-01T15:45:12.220Z,21.53
2022-09-01T15:47:44.912Z,21.20
2022-09-01T15:50:21.543Z,21.29
2022-09-01T15:52:58.660Z,21.33
2022-09-01T15:55:31.663Z,21.61
2022-09-01T15:57:58.970Z,21.46
2022-09-01T16:00:26.778Z,21.64
2022-09-01T16:02:55.540Z,21.56
2022-09-01T16:05:22.670Z,21.41
2022-09-01T16:07:51.576Z,21.32
2022-09-01T16:10:18.562Z,21.55
2022-09-01T16:12:46.617Z,21.41
2022-09-01T16:15:16.608Z,21.50
2022-09-01T16:17:49.082Z,21.21
2022-09-01T16:20:24.205Z,21.16
2022-09-01T16:22:55.368Z,21.16
2022-09-01T16:25:31.581Z,21.01
2022-09-01T16:28:04.735Z,21.03
2022-09-01T16:30:31.190Z,20.65
2022-09-01T16:33:01.157Z,20.68
2022-09-01T16:35:46.230Z,20.50
2022-09-01T16:38:37.602Z,20.59
2022-09-01T16:41:44.476Z,20.54
2022-09-01T16:44:21.686Z,20.50
2022-09-01T16:47:04.130Z,20.46
2022-09-01T16:49:34.898Z,20.54
2022-09-01T16:52:30.956Z,20.30
2022-09-01T16:55:35.995Z,20.45
2022-09-01T16:58:24.273Z,20.37
2022-09-01T17:01:17.156Z,20.30
2022-09-01T17:03:57.987Z,20.23
2022-09-01T17:06:36.525Z,20.28
2022-09-01T17:09:16.575Z,20.27
2022-09-01T17:11:49.623Z,20.22
2022-09-01T17:14:31.561Z,20.08
2022-09-01T17:17:10.715Z,20.13
2022-09-01T17:19:40.850Z,20.04
2022-09-01T17:22:11.665Z,19.98
2022-09-01T17:24:39.922Z,20.03
2022-09-01T17:27:14.116Z,19.89
2022-09-01T17:29:45.131Z,19.80
2022-09-01T17:32:48.316Z,19.54
2022-09-01T17:35:58.430Z,19.49
2022-09-01T17:38:54.125Z,19.42
2022-09-01T17:41:34.969Z,19.24
2022-09-01T17:44:26.635Z,19.16
2022-09-01T17:47:23.403Z,19.09
2022-09-01T17:50:10.847Z,19.09
2022-09-01T17:53:02.206Z,18.97
2022-09-01T17:55:45.128Z,18.89
2022-09-01T17:58:41.043Z,18.81
2022-09-01T18:01:21.342Z,18.71
2022-09-01T18:04:20.043Z,18.75
2022-09-01T18:07:14.787Z,18.65
2022-09-01T18:09:46.304Z,18.53
2022-09-01T18:12:18.923Z,18.41
2022-09-01T18:15:09.017Z,18.30
2022-09-01T18:17:44.705Z,18.33
2022-09-01T18:20:19.365Z,18.31
2022-09-01T18:23:05.034Z,18.08
2022-09-01T18:25:39.529Z,18.16
2022-09-01T18:28:06.375Z,18.13
2022-09-01T18:30:55.790Z,18.02
2022-09-01T18:33:32.887Z,17.88
2022-09-01T18:36:16.975Z,17.84
2022-09-01T18:38:55.880Z,17.75
2022-09-01T18:41:40.236Z,17.68
2022-09-01T18:44:19.041Z,17.48
2022-09-01T18:47:01.228Z,17.34
2022-09-01T18:49:36.658Z,17.22
2022-09-01T18:52:12.630Z,17.20
2022-09-01T18:54:44.360Z,17.00
2022-09-01T18:57:21.097Z,16.99
2022-09-01T19:00:02.903Z,16.87
2022-09-01T19:02:45.660Z,16.78
2022-09-01T19:05:32.781Z,16.65
2022-09-01T19:08:04.721Z,16.55
2022-09-01T19:10:42.370Z,16.57
2022-09-01T19:13:18.050Z,16.54
2022-09-01T19:15:59.023Z,16.39
2022-09-01T19:18:39.566Z,16.33
2022-09-01T19:21:08.098Z,16.27
2022-09-01T19:23:44.299Z,16.17
2022-09-01T19:26:15.911Z,16.17
2022-09-01T19:28:58.423Z,16.13
2022-09-01T19:31:29.217Z,16.07
2022-09-01T19:34:02.695Z,15.98
2022-09-01T19:36:40.661Z,15.88
2022-09-01T19:39:11.842Z,15.83
2022-09-01T19:41:47.720Z,15.78
2022-09-01T19:44:25.587Z,15.73
2022-09-01T19:47:03.002Z,15.62
2022-09-01T19:49:43.138Z,15.60
2022-09-01T19:52:34.162Z,15.53
2022-09-01T19:55:09.886Z,15.48
2022-09-01T19:57:45.539Z,15.47
2022-09-01T20:00:20.443Z,15.43
2022-09-01T20:02:53.122Z,15.38
2022-09-01T20:05:40.269Z,15.38
2022-09-01T20:08:15.514Z,15.31
2022-09-01T20:11:07.718Z,15.24
2022-09-01T20:13:58.517Z,15.25
2022-09-01T20:16:44.501Z,15.16
2022-09-01T20:19:16.452Z,15.12
2022-09-01T20:21:47.981Z,15.18
2022-09-01T20:24:39.888Z,15.07
2022-09-01T20:27:44.063Z,15.02
2022-09-01T20:30:14.346Z,15.02
2022-09-01T20:33:03.293Z,14.98
2022-09-01T20:35:39.808Z,15.04
2022-09-01T20:38:35.524Z,14.92
2022-09-01T20:41:18.141Z,14.94
2022-09-01T20:43:49.130Z,14.94
2022-09-01T20:46:19.698Z,14.81
2022-09-01T20:48:48.001Z,14.80
2022-09-01T20:51:21.604Z,14.86
2022-09-01T20:54:19.170Z,14.76
2022-09-01T20:57:23.283Z,14.83
2022-09-01T20:59:54.564Z,14.87
2022-09-01T21:02:33.289Z,14.88
2022-09-01T21:05:11.078Z,14.83
2022-09-01T21:08:25.891Z,14.91
2022-09-01T21:11:04.102Z,14.74
2022-09-01T21:13:33.492Z,14.76
2022-09-01T21:16:08.770Z,14.71
2022-09-01T21:18:47.123Z,14.61
2022-09-01T21:21:28.896Z,14.52
2022-09-01T21:23:55.370Z,14.45
2022-09-01T21:26:21.907Z,14.41
2022-09-01T21:28:53.102Z,14.32
2022-09-01T21:31:20.073Z,14.24
2022-09-01T21:33:46.790Z,14.21
2022-09-01T21:36:13.325Z,14.18
2022-09-01T21:38:39.845Z,14.09
2022-09-01T21:41:10.840Z,14.04
2022-09-01T21:43:43.853Z,13.99
2022-09-01T21:46:10.887Z,13.93
2022-09-01T21:48:37.442Z,13.93
2022-09-01T21:51:04.844Z,13.90
2022-09-01T21:53:32.800Z,13.82
2022-09-01T21:55:59.721Z,13.81
2022-09-01T21:58:26.241Z,13.73
2022-09-01T22:00:52.790Z,13.70
2022-09-01T22:03:19.579Z,13.67
2022-09-01T22:05:46.252Z,13.64
2022-09-01T22:08:14.135Z,13.54
2022-09-01T22:10:46.786Z,13.65
2022-09-01T22:13:13.591Z,13.48
2022-09-01T22:15:42.827Z,13.49
2022-09-01T22:18:09.559Z,13.41
2022-09-01T22:20:36.019Z,13.40
2022-09-01T22:23:02.833Z,13.33
2022-09-01T22:25:31.075Z,13.31
2022-09-01T22:27:59.153Z,13.28
2022-09-01T22:30:25.708Z,13.28
2022-09-01T22:32:53.992Z,13.25
2022-09-01T22:35:20.811Z,13.29
2022-09-01T22:37:47.738Z,13.21
2022-09-01T22:40:15.590Z,13.23
2022-09-01T22:42:43.023Z,13.18
2022-09-01T22:45:11.075Z,13.18
2022-09-01T22:47:38.395Z,13.14
2022-09-01T22:50:07.738Z,13.09
2022-09-01T22:52:35.641Z,13.09
2022-09-01T22:55:03.343Z,13.11
2022-09-01T22:57:29.987Z,13.03
2022-09-01T22:59:56.598Z,13.03
2022-09-01T23:02:23.483Z,13.04
2022-09-01T23:04:50.437Z,12.94
2022-09-01T23:07:17.172Z,13.01
2022-09-01T23:09:43.671Z,12.95
2022-09-01T23:12:10.118Z,12.90
2022-09-01T23:14:36.565Z,12.84
2022-09-01T23:17:03.213Z,12.84
2022-09-01T23:19:29.667Z,12.81
2022-09-01T23:21:56.110Z,12.82
2022-09-01T23:24:22.822Z,12.80
2022-09-01T23:26:49.834Z,12.73
2022-09-01T23:29:17.256Z,12.68
2022-09-01T23:31:44.263Z,12.65
2022-09-01T23:34:13.269Z,12.59
2022-09-01T23:36:40.758Z,12.58
2022-09-01T23:39:07.698Z,12.55
2022-09-01T23:41:36.939Z,12.50
2022-09-01T23:44:06.026Z,12.45
2022-09-01T23:46:35.209Z,12.46
2022-09-01T23:49:02.220Z,12.42
2022-09-01T23:51:29.581Z,12.42
2022-09-01T23:53:56.421Z,12.42
2022-09-01T23:56:25.826Z,12.40
2022-09-01T23:58:52.882Z,12.34
